Titan — WDD7142 — position and weather

sailwx.info

Track history (hours):
 
Tides and Currents Weather Stations Pressure Air Temp Water Temp Dewpoint Dewpoint Depression Visibility Wind Speed Wind Dir Waves Ship Positions

Titan

Owner: Seabulk Towing Service,Inc, Groves, TX. More information available from US FCC via Universal Licensing System and Coast Guard Vessel Documentation Center.

Last reported at 2017-Oct-19 08:52 UTC. Time now 2017-Oct-19 09:06 UTC.
Position N 29°54' W 093°55'.

Length 32 m.

Type: Tug. MMSI: 366268050.

Date/timePositionNaut miles runAvg speedWind from/ knotsBaromVisibWave heightAir tempDewpointWater temp
2017-Oct-19 08:52N 29°54' W 093°55'4 0.2
2017-Oct-18 09:51N 29°57' W 093°52'  
2017-Oct-14 14:26N 29°59' W 093°56'0 0.0
2017-Oct-14 14:00N 29°59' W 093°56'0 0.0
2017-Oct-14 13:00N 29°59' W 093°56'2 4.2
2017-Oct-14 12:24N 30°01' W 093°59'1 0.5
2017-Oct-14 11:27N 30°01' W 093°59'3 5.5
2017-Oct-14 10:55N 29°59' W 093°56'0 0.0
2017-Oct-14 09:48N 29°59' W 093°56'0 0.0
2017-Oct-14 09:30N 29°59' W 093°56'0 0.0
2017-Oct-14 07:46N 29°59' W 093°56'0 0.0
2017-Oct-14 07:30N 29°59' W 093°56'0 0.0
2017-Oct-14 07:00N 29°59' W 093°56'5 0.3
2017-Oct-13 13:57N 29°57' W 093°52'0 0.0
2017-Oct-13 13:30N 29°57' W 093°52'0 0.0
2017-Oct-13 12:58N 29°57' W 093°52'2 4.8
2017-Oct-13 12:30N 29°59' W 093°52'3 0.9
2017-Oct-13 08:46N 29°59' W 093°56'0 0.0
2017-Oct-13 08:30N 29°59' W 093°56'0 0.0
2017-Oct-13 08:00N 29°59' W 093°56'0 0.0
2017-Oct-13 07:30N 29°59' W 093°56'0 0.0
2017-Oct-13 06:43N 29°59' W 093°56'2 0.1
2017-Oct-12 14:00N 30°01' W 093°58'2 0.2
2017-Oct-12 05:01N 29°59' W 093°56'0 0.0
2017-Oct-12 04:58N 29°59' W 093°56'1 0.4
2017-Oct-12 01:49N 29°59' W 093°54'  
Track history (hours):
 
Tides and Currents Weather Stations Pressure Air Temp Water Temp Dewpoint Dewpoint Depression Visibility Wind Speed Wind Dir Waves Ship Positions

Titan

Owner: Seabulk Towing Service,Inc, Groves, TX. More information available from US FCC via Universal Licensing System and Coast Guard Vessel Documentation Center.

Last reported at 2017-Oct-19 08:52 UTC. Time now 2017-Oct-19 09:06 UTC.
Position N 29°54' W 093°55'.

Length 32 m.

Type: Tug. MMSI: 366268050.

Date/timePositionNaut miles runAvg speedWind from/ knotsBaromVisibWave heightAir tempDewpointWater temp
2017-Oct-19 08:52N 29°54' W 093°55'4 0.2
2017-Oct-18 09:51N 29°57' W 093°52'  
2017-Oct-14 14:26N 29°59' W 093°56'0 0.0
2017-Oct-14 14:00N 29°59' W 093°56'0 0.0
2017-Oct-14 13:00N 29°59' W 093°56'2 4.2
2017-Oct-14 12:24N 30°01' W 093°59'1 0.5
2017-Oct-14 11:27N 30°01' W 093°59'3 5.5
2017-Oct-14 10:55N 29°59' W 093°56'0 0.0
2017-Oct-14 09:48N 29°59' W 093°56'0 0.0
2017-Oct-14 09:30N 29°59' W 093°56'0 0.0
2017-Oct-14 07:46N 29°59' W 093°56'0 0.0
2017-Oct-14 07:30N 29°59' W 093°56'0 0.0
2017-Oct-14 07:00N 29°59' W 093°56'5 0.3
2017-Oct-13 13:57N 29°57' W 093°52'0 0.0
2017-Oct-13 13:30N 29°57' W 093°52'0 0.0
2017-Oct-13 12:58N 29°57' W 093°52'2 4.8
2017-Oct-13 12:30N 29°59' W 093°52'3 0.9
2017-Oct-13 08:46N 29°59' W 093°56'0 0.0
2017-Oct-13 08:30N 29°59' W 093°56'0 0.0
2017-Oct-13 08:00N 29°59' W 093°56'0 0.0
2017-Oct-13 07:30N 29°59' W 093°56'0 0.0
2017-Oct-13 06:43N 29°59' W 093°56'2 0.1
2017-Oct-12 14:00N 30°01' W 093°58'2 0.2
2017-Oct-12 05:01N 29°59' W 093°56'0 0.0
2017-Oct-12 04:58N 29°59' W 093°56'1 0.4
2017-Oct-12 01:49N 29°59' W 093°54'  

Dump ship's entire track history